Time;durP1;ratioP1;P1;durP2;ratioP2;P2;SDS_P1;SDS_P2;PMS_P1;PMS_P2;Temp;Humidity;BMP_temperature;BMP_pressure;BME280_temperature;BME280_humidity;BME280_pressure;Samples;Min_cycle;Max_cycle;Signal;HPM_P1;HPM_P2
2021/01/18 00:00:23;;;;;;;5.65;2.15;;;-0.10;99.90;;;;;;5023784;28;20401;-79
2021/01/18 00:02:51;;;;;;;9.45;4.03;;;0.00;99.90;;;;;;5018021;28;20045;-79
2021/01/18 00:05:18;;;;;;;11.00;5.82;;;-0.10;99.90;;;;;;5019593;28;20045;-79
2021/01/18 00:07:49;;;;;;;18.65;9.65;;;-0.20;99.90;;;;;;5036395;28;20045;-79
2021/01/18 00:10:20;;;;;;;13.02;6.40;;;-0.30;99.90;;;;;;5040067;28;20514;-79
2021/01/18 00:12:54;;;;;;;13.38;5.65;;;-0.40;99.90;;;;;;5023975;28;20057;-79
2021/01/18 00:15:22;;;;;;;11.85;4.97;;;-0.50;99.90;;;;;;5042421;28;20055;-79
2021/01/18 00:17:49;;;;;;;15.43;6.88;;;-0.70;99.90;;;;;;5030498;28;20136;-79
2021/01/18 00:20:17;;;;;;;18.65;9.30;;;-0.80;99.90;;;;;;5033777;28;20056;-79
2021/01/18 00:22:45;;;;;;;16.00;7.97;;;-0.90;99.90;;;;;;5018893;28;20073;-79
2021/01/18 00:25:15;;;;;;;16.92;8.55;;;-0.90;99.90;;;;;;5033338;28;20046;-79
2021/01/18 00:27:43;;;;;;;16.80;8.75;;;-1.00;99.90;;;;;;5025287;28;20697;-79
2021/01/18 00:30:16;;;;;;;16.90;9.40;;;-1.00;99.90;;;;;;5030576;28;20057;-79
2021/01/18 00:32:44;;;;;;;19.48;8.85;;;-1.00;99.90;;;;;;5030502;28;20077;-79
2021/01/18 00:35:13;;;;;;;19.83;10.93;;;-1.10;99.90;;;;;;5030344;28;20049;-79
2021/01/18 00:37:45;;;;;;;20.08;9.02;;;-1.10;99.90;;;;;;5011712;28;20113;-79
2021/01/18 00:40:16;;;;;;;20.10;10.80;;;-1.20;99.90;;;;;;5026069;28;20046;-79
2021/01/18 00:42:44;;;;;;;16.63;9.40;;;-1.30;99.90;;;;;;5017272;28;20053;-79
2021/01/18 00:45:15;;;;;;;19.58;9.18;;;-1.40;99.90;;;;;;5016305;28;20046;-79
2021/01/18 00:47:47;;;;;;;12.18;7.22;;;-1.40;99.90;;;;;;5018579;28;20046;-79
2021/01/18 00:50:43;;;;;;;12.35;6.75;;;-1.50;99.90;;;;;;5033526;28;20088;-79
2021/01/18 00:53:09;;;;;;;10.05;5.22;;;-1.40;99.90;;;;;;4941765;28;20520;-79
2021/01/18 00:55:36;;;;;;;8.52;4.38;;;-1.40;99.90;;;;;;4957006;29;20055;-79
2021/01/18 00:58:02;;;;;;;13.43;6.13;;;-1.30;99.90;;;;;;4940457;29;20044;-79
2021/01/18 01:00:29;;;;;;;11.63;6.13;;;-1.20;99.90;;;;;;4956110;28;20055;-79
2021/01/18 01:02:57;;;;;;;8.70;5.57;;;-1.20;99.90;;;;;;4956271;28;20058;-79
2021/01/18 01:05:27;;;;;;;14.52;6.22;;;-1.30;99.90;;;;;;4958551;28;20104;-79
2021/01/18 01:07:58;;;;;;;12.63;6.15;;;-1.40;99.90;;;;;;4942142;29;20066;-79
2021/01/18 01:10:28;;;;;;;5.78;3.53;;;-1.40;99.90;;;;;;4960682;28;20557;-79
2021/01/18 01:12:59;;;;;;;8.45;4.57;;;-1.40;99.90;;;;;;4938902;29;20055;-79
2021/01/18 01:15:25;;;;;;;7.15;4.80;;;-1.40;99.90;;;;;;4954961;28;20089;-79
2021/01/18 01:17:52;;;;;;;9.18;3.80;;;-1.40;99.90;;;;;;4941152;29;20051;-79
2021/01/18 01:20:21;;;;;;;6.95;3.35;;;-1.40;99.90;;;;;;4956236;28;20047;-79
2021/01/18 01:22:49;;;;;;;4.35;2.58;;;-1.40;99.90;;;;;;4941453;28;20444;-79
2021/01/18 01:25:17;;;;;;;4.47;2.08;;;-1.40;99.90;;;;;;4955180;28;20047;-79
2021/01/18 01:27:45;;;;;;;4.63;2.35;;;-1.40;99.90;;;;;;4954576;28;20187;-79
2021/01/18 01:30:20;;;;;;;6.97;2.60;;;-1.30;99.90;;;;;;5000311;28;20052;-79
2021/01/18 01:32:49;;;;;;;7.50;4.05;;;-1.40;99.90;;;;;;5027034;28;20061;-79
2021/01/18 01:35:26;;;;;;;5.57;3.70;;;-1.50;99.90;;;;;;5019500;28;20057;-79
2021/01/18 01:37:54;;;;;;;8.10;3.28;;;-1.60;99.90;;;;;;5015341;28;20512;-79
2021/01/18 01:40:21;;;;;;;5.97;3.97;;;-1.60;99.90;;;;;;5036457;28;20064;-78
2021/01/18 01:42:49;;;;;;;4.45;1.85;;;-1.60;99.90;;;;;;5018039;28;20048;-78
2021/01/18 01:45:20;;;;;;;3.05;1.50;;;-1.50;99.90;;;;;;5034739;28;20049;-79
2021/01/18 01:47:50;;;;;;;3.70;1.80;;;-1.50;99.90;;;;;;5019226;28;20466;-79
2021/01/18 01:50:28;;;;;;;4.10;1.80;;;-1.40;99.90;;;;;;5017465;28;20061;-79
2021/01/18 01:53:00;;;;;;;11.63;2.80;;;-1.40;99.90;;;;;;5031726;28;20049;-79
2021/01/18 01:55:29;;;;;;;4.25;1.40;;;-1.50;99.90;;;;;;5018964;28;20573;-79
2021/01/18 01:57:57;;;;;;;6.40;1.50;;;-1.50;99.90;;;;;;5032575;28;20049;-79
2021/01/18 02:00:36;;;;;;;5.93;2.53;;;-1.60;99.90;;;;;;5019785;28;20046;-79
2021/01/18 02:03:07;;;;;;;3.97;1.30;;;-1.60;99.90;;;;;;5034815;28;20061;-79
2021/01/18 02:05:34;;;;;;;3.08;1.60;;;-1.60;99.90;;;;;;5019521;28;20049;-79
2021/01/18 02:08:03;;;;;;;5.88;1.60;;;-1.60;99.90;;;;;;5009554;28;20438;-79
2021/01/18 02:10:31;;;;;;;4.47;1.80;;;-1.60;99.90;;;;;;5013153;28;20058;-79
2021/01/18 02:12:59;;;;;;;9.30;1.75;;;-1.60;99.90;;;;;;5028614;28;20124;-79
2021/01/18 02:15:49;;;;;;;27.33;12.07;;;-1.70;99.90;;;;;;5006822;28;20533;-79
2021/01/18 02:18:31;;;;;;;20.90;9.82;;;-1.70;99.90;;;;;;5030363;28;20049;-79
2021/01/18 02:21:07;;;;;;;7.82;2.83;;;-1.70;99.90;;;;;;5026585;28;20048;-79
2021/01/18 02:23:52;;;;;;;2.83;2.22;;;-1.70;99.90;;;;;;5033198;28;20045;-79
2021/01/18 02:26:27;;;;;;;5.47;2.50;;;-1.70;99.90;;;;;;5031829;28;20054;-79
2021/01/18 02:29:32;;;;;;;6.60;1.80;;;-1.70;99.90;;;;;;5016435;28;20143;-79
2021/01/18 02:32:21;;;;;;;;;;;-1.60;99.90;;;;;;5035048;28;20053;-79
2021/01/18 02:35:36;;;;;;;1.80;1.10;;;-1.40;99.90;;;;;;5018635;28;20381;-79
2021/01/18 02:38:29;;;;;;;3.88;1.35;;;-1.30;99.90;;;;;;4961335;28;20066;-79
2021/01/18 02:41:22;;;;;;;3.70;1.48;;;-1.40;99.90;;;;;;5011284;28;20056;-79
2021/01/18 02:43:53;;;;;;;2.70;1.45;;;-1.50;99.90;;;;;;5035083;28;20045;-79
2021/01/18 02:46:21;;;;;;;2.00;1.20;;;-1.50;99.90;;;;;;5017174;28;20063;-79
2021/01/18 02:48:49;;;;;;;4.45;1.83;;;-1.60;99.90;;;;;;5012444;28;20037;-79
2021/01/18 02:51:21;;;;;;;4.57;1.63;;;-1.70;99.90;;;;;;5015603;28;20053;-79
2021/01/18 02:54:00;;;;;;;4.53;2.40;;;-1.80;99.90;;;;;;5017518;28;20054;-79
2021/01/18 02:56:31;;;;;;;3.55;1.38;;;-2.00;99.90;;;;;;5029805;28;20060;-79
2021/01/18 02:59:00;;;;;;;3.25;1.92;;;-2.10;99.90;;;;;;5033239;28;20049;-79
2021/01/18 03:01:50;;;;;;;5.20;2.65;;;-2.20;99.90;;;;;;5036835;28;20060;-79
2021/01/18 03:04:43;;;;;;;9.25;3.08;;;-2.20;99.90;;;;;;5018400;28;20049;-79
2021/01/18 03:07:20;;;;;;;4.15;1.67;;;-2.40;99.90;;;;;;5014591;28;20047;-79
2021/01/18 03:10:12;;;;;;;6.18;3.72;;;-2.60;99.90;;;;;;5039267;28;20056;-79
2021/01/18 03:13:06;;;;;;;5.03;2.80;;;-2.70;99.90;;;;;;5033842;28;20045;-79
2021/01/18 03:15:37;;;;;;;;;;;-2.70;99.90;;;;;;5024644;28;20049;-79
2021/01/18 03:18:05;;;;;;;5.15;2.25;;;-2.60;99.90;;;;;;5034354;28;19925;-79
2021/01/18 03:20:32;;;;;;;6.50;2.80;;;-2.50;99.90;;;;;;5025830;28;20054;-78
2021/01/18 03:23:09;;;;;;;2.85;1.40;;;-2.50;99.90;;;;;;5038685;28;20069;-78
2021/01/18 03:25:50;;;;;;;8.30;2.00;;;-2.50;99.90;;;;;;5034525;28;20045;-79
2021/01/18 03:28:18;;;;;;;5.50;2.00;;;-2.60;99.90;;;;;;5009774;28;20065;-79
2021/01/18 03:30:45;;;;;;;5.90;1.50;;;-2.50;99.90;;;;;;5019853;28;20056;-79
2021/01/18 03:33:12;;;;;;;2.13;0.80;;;-2.50;99.90;;;;;;5037801;28;20116;-79
2021/01/18 03:35:38;;;;;;;1.50;0.60;;;-2.30;99.90;;;;;;5023601;28;20054;-79
2021/01/18 03:38:05;;;;;;;1.27;0.70;;;-2.20;99.90;;;;;;5031676;28;20075;-79
2021/01/18 03:40:32;;;;;;;2.45;0.85;;;-2.10;99.90;;;;;;5038878;28;20120;-79
2021/01/18 03:43:00;;;;;;;3.03;1.20;;;-2.20;99.90;;;;;;5030607;28;20041;-79
2021/01/18 03:45:29;;;;;;;2.20;1.30;;;-2.20;99.90;;;;;;5022547;28;20091;-79
2021/01/18 03:47:56;;;;;;;2.47;1.30;;;-2.30;99.90;;;;;;5035963;28;20091;-79
2021/01/18 03:50:23;;;;;;;3.53;1.52;;;-2.40;99.90;;;;;;5011920;28;20038;-79
2021/01/18 03:52:51;;;;;;;1.88;1.10;;;-2.40;99.90;;;;;;5015569;28;20060;-79
2021/01/18 03:55:18;;;;;;;3.60;1.40;;;-2.40;99.90;;;;;;5031141;28;20482;-79
2021/01/18 03:57:48;;;;;;;3.25;1.10;;;-2.40;99.90;;;;;;5017323;28;20486;-79
2021/01/18 04:00:17;;;;;;;6.93;1.65;;;-2.50;99.90;;;;;;5031491;28;20136;-79
2021/01/18 04:02:45;;;;;;;4.43;2.53;;;-2.50;99.90;;;;;;5017497;28;20076;-79
2021/01/18 04:05:14;;;;;;;5.78;1.70;;;-2.40;99.90;;;;;;5011898;28;20057;-79
2021/01/18 04:07:44;;;;;;;7.53;1.85;;;-2.40;99.90;;;;;;5034181;28;20399;-79
2021/01/18 04:10:12;;;;;;;2.47;1.00;;;-2.40;99.90;;;;;;5014798;28;20054;-79
2021/01/18 04:12:42;;;;;;;1.42;0.90;;;-2.40;99.90;;;;;;5018721;28;20060;-79
2021/01/18 04:15:11;;;;;;;3.67;0.93;;;-2.40;99.90;;;;;;5020757;28;20061;-79
2021/01/18 04:17:46;;;;;;;1.60;0.95;;;-2.30;99.90;;;;;;5028216;28;20068;-79
2021/01/18 04:20:13;;;;;;;4.25;1.58;;;-2.40;99.90;;;;;;5014276;28;20059;-79
2021/01/18 04:22:51;;;;;;;3.88;1.40;;;-2.40;99.90;;;;;;5037154;28;20080;-79
2021/01/18 04:25:20;;;;;;;5.80;1.88;;;-2.40;99.90;;;;;;5035291;28;20046;-79
2021/01/18 04:27:51;;;;;;;0.90;0.77;;;-2.40;99.90;;;;;;5037519;28;20053;-79
2021/01/18 04:30:20;;;;;;;1.63;0.90;;;-2.40;99.90;;;;;;5031948;28;20037;-79
2021/01/18 04:33:04;;;;;;;0.90;0.63;;;-2.30;99.90;;;;;;5013020;28;20100;-79
2021/01/18 04:35:34;;;;;;;1.88;0.90;;;-2.30;99.90;;;;;;5036665;28;20045;-79
2021/01/18 04:38:01;;;;;;;1.73;0.90;;;-2.40;99.90;;;;;;5017147;28;20409;-79
2021/01/18 04:40:29;;;;;;;6.25;1.70;;;-2.50;99.90;;;;;;5029819;28;20052;-79
2021/01/18 04:42:55;;;;;;;4.50;1.70;;;-2.50;99.90;;;;;;5031203;28;20050;-79
2021/01/18 04:45:25;;;;;;;2.88;1.60;;;-2.60;99.90;;;;;;5038825;28;20049;-79
2021/01/18 04:47:54;;;;;;;9.45;3.85;;;-2.50;99.90;;;;;;5032517;28;20049;-79
2021/01/18 04:50:23;;;;;;;10.43;2.50;;;-2.60;99.90;;;;;;5037609;28;20064;-79
2021/01/18 04:52:52;;;;;;;5.70;2.40;;;-2.60;99.90;;;;;;5020762;28;20053;-79
2021/01/18 04:55:57;;;;;;;10.73;3.97;;;-2.60;99.90;;;;;;5034524;28;20056;-79
2021/01/18 04:58:29;;;;;;;33.13;12.02;;;-2.70;99.90;;;;;;5031233;28;20045;-79
2021/01/18 05:01:02;;;;;;;35.38;11.68;;;-2.70;99.90;;;;;;5033812;28;20049;-79
2021/01/18 05:03:34;;;;;;;1.77;1.08;;;-2.70;99.90;;;;;;5035713;28;20084;-79
2021/01/18 05:06:13;;;;;;;3.05;1.02;;;-2.70;99.90;;;;;;5016902;28;20049;-79
2021/01/18 05:08:52;;;;;;;7.88;2.58;;;-2.60;99.90;;;;;;5029512;28;20041;-79
2021/01/18 05:11:19;;;;;;;5.15;1.98;;;-2.70;99.90;;;;;;5020156;28;20140;-79
2021/01/18 05:13:46;;;;;;;5.60;1.95;;;-2.70;99.90;;;;;;5019562;28;20049;-79
2021/01/18 05:16:12;;;;;;;7.32;3.75;;;-2.70;99.90;;;;;;5035476;28;20045;-79
2021/01/18 05:18:41;;;;;;;6.53;3.28;;;-2.90;99.90;;;;;;5039125;28;20422;-79
2021/01/18 05:21:09;;;;;;;12.75;4.18;;;-3.10;99.90;;;;;;5031555;28;20053;-78
2021/01/18 05:23:40;;;;;;;4.45;2.08;;;-3.20;99.90;;;;;;5004748;28;20056;-79
2021/01/18 05:26:27;;;;;;;5.70;2.75;;;-3.30;99.90;;;;;;5031733;28;20046;-79
2021/01/18 05:28:55;;;;;;;7.07;2.88;;;-3.40;99.90;;;;;;5033811;28;20046;-78
2021/01/18 05:31:28;;;;;;;6.13;2.72;;;-3.50;99.90;;;;;;5032816;28;20045;-79
2021/01/18 05:34:12;;;;;;;8.90;3.08;;;-3.50;99.90;;;;;;5018430;28;20408;-79
2021/01/18 05:36:47;;;;;;;7.43;2.53;;;-3.60;99.90;;;;;;5017666;28;20053;-79
2021/01/18 05:39:18;;;;;;;6.90;2.25;;;-3.60;99.90;;;;;;5012262;28;20057;-79
2021/01/18 05:41:47;;;;;;;3.72;1.90;;;-3.60;99.90;;;;;;5033748;28;20071;-79
2021/01/18 05:44:14;;;;;;;4.70;1.65;;;-3.60;99.90;;;;;;5016215;28;20041;-79
2021/01/18 05:46:44;;;;;;;4.90;1.27;;;-3.60;99.90;;;;;;5030516;28;20055;-79
2021/01/18 05:49:18;;;;;;;4.18;2.13;;;-3.60;99.90;;;;;;5006193;28;20046;-79
2021/01/18 05:51:52;;;;;;;6.18;2.00;;;-3.60;99.90;;;;;;5010660;28;20050;-79
2021/01/18 05:54:24;;;;;;;4.60;1.10;;;-3.50;99.90;;;;;;5034961;28;20453;-79
2021/01/18 05:56:55;;;;;;;4.15;1.40;;;-3.50;99.90;;;;;;5017469;28;20079;-79
2021/01/18 05:59:26;;;;;;;1.42;0.90;;;-3.40;99.90;;;;;;5014042;28;20064;-78
2021/01/18 06:01:57;;;;;;;4.20;0.95;;;-3.30;99.90;;;;;;5023784;28;20054;-79
2021/01/18 06:04:31;;;;;;;1.30;1.10;;;-3.30;99.90;;;;;;5026870;28;20049;-78
2021/01/18 06:06:59;;;;;;;1.88;0.80;;;-3.30;99.90;;;;;;5035563;28;20053;-78
2021/01/18 06:09:46;;;;;;;2.83;1.55;;;-3.30;99.90;;;;;;5017732;28;20056;-79
2021/01/18 06:12:23;;;;;;;2.72;1.08;;;-3.40;99.90;;;;;;5033737;28;20048;-78
2021/01/18 06:15:08;;;;;;;2.80;1.27;;;-3.30;99.90;;;;;;5013000;28;20085;-79
2021/01/18 06:17:48;;;;;;;1.10;0.68;;;-3.30;99.90;;;;;;5016983;28;20051;-78
2021/01/18 06:20:19;;;;;;;3.25;0.70;;;-3.30;99.90;;;;;;5033849;28;20132;-79
2021/01/18 06:22:53;;;;;;;3.13;0.90;;;-3.20;99.90;;;;;;5035691;28;20042;-79
2021/01/18 06:25:21;;;;;;;2.15;1.00;;;-3.20;99.90;;;;;;5036379;28;20137;-80
2021/01/18 06:27:48;;;;;;;3.95;1.20;;;-3.20;99.90;;;;;;5029428;28;20058;-80
2021/01/18 06:30:29;;;;;;;2.10;1.35;;;-3.20;99.90;;;;;;5034253;28;20053;-80
2021/01/18 06:33:00;;;;;;;11.05;2.30;;;-3.20;99.90;;;;;;5009298;28;20063;-80
2021/01/18 06:35:32;;;;;;;7.18;4.43;;;-3.20;99.90;;;;;;5022570;28;20132;-80
2021/01/18 06:38:30;;;;;;;5.40;3.25;;;-3.30;99.90;;;;;;5039105;28;20055;-80
2021/01/18 06:41:00;;;;;;;8.68;3.92;;;-3.30;99.90;;;;;;4982524;28;20057;-80
2021/01/18 06:43:26;;;;;;;7.93;4.20;;;-3.30;99.90;;;;;;4966902;28;20054;-80
2021/01/18 06:45:54;;;;;;;5.05;1.60;;;-3.40;99.90;;;;;;4981771;28;20038;-80
2021/01/18 06:48:21;;;;;;;8.75;4.65;;;-3.40;99.90;;;;;;4982834;28;20061;-80
2021/01/18 06:50:48;;;;;;;8.95;5.50;;;-3.40;99.90;;;;;;4954713;28;20039;-80
2021/01/18 06:53:17;;;;;;;23.40;9.98;;;-3.40;99.90;;;;;;4964628;28;20051;-78
2021/01/18 06:56:20;;;;;;;21.25;11.18;;;-3.50;99.90;;;;;;4947990;28;20046;-78
2021/01/18 06:59:24;;;;;;;12.77;7.68;;;-3.70;99.90;;;;;;4959316;28;20047;-78
2021/01/18 07:02:15;;;;;;;10.40;6.43;;;-3.90;99.90;;;;;;4972124;28;20051;-78
2021/01/18 07:04:46;;;;;;;7.63;3.88;;;-3.90;99.90;;;;;;4971143;28;20067;-78
2021/01/18 07:07:27;;;;;;;4.88;3.08;;;-4.00;99.90;;;;;;4956552;28;20147;-78
2021/01/18 07:10:03;;;;;;;4.97;2.10;;;-4.00;99.90;;;;;;4971628;28;20049;-78
2021/01/18 07:12:30;;;;;;;2.97;1.08;;;-4.00;99.90;;;;;;4971361;28;20049;-78
2021/01/18 07:15:02;;;;;;;2.45;1.27;;;-4.10;99.90;;;;;;4969187;28;20057;-78
2021/01/18 07:17:43;;;;;;;3.45;1.25;;;-4.10;99.90;;;;;;4979423;28;20053;-78
2021/01/18 07:20:17;;;;;;;6.20;2.15;;;-4.00;99.90;;;;;;5027803;28;20431;-78
2021/01/18 07:23:08;;;;;;;2.53;1.95;;;-4.00;99.90;;;;;;5015839;28;20403;-78
2021/01/18 07:25:40;;;;;;;3.65;2.35;;;-3.90;99.90;;;;;;5012620;28;20125;-78
2021/01/18 07:28:11;;;;;;;4.40;2.67;;;-3.80;99.90;;;;;;5013145;28;20072;-78
2021/01/18 07:30:40;;;;;;;5.50;2.75;;;-3.70;99.90;;;;;;5011263;28;20525;-78
2021/01/18 07:33:07;;;;;;;3.63;1.77;;;-3.70;99.90;;;;;;5031230;28;20049;-78
2021/01/18 07:35:35;;;;;;;16.02;8.27;;;-3.60;99.90;;;;;;5030881;28;20041;-78
2021/01/18 07:38:11;;;;;;;27.40;11.68;;;-3.60;99.90;;;;;;5003657;28;20751;-78
2021/01/18 07:40:37;;;;;;;10.45;4.97;;;-3.40;99.90;;;;;;5021212;28;20054;-78
2021/01/18 07:43:04;;;;;;;18.67;10.95;;;-3.30;99.90;;;;;;5004041;28;20042;-78
2021/01/18 07:45:30;;;;;;;23.42;14.25;;;-3.30;99.90;;;;;;5000878;28;20050;-78
2021/01/18 07:47:56;;;;;;;13.25;9.25;;;-3.30;99.90;;;;;;5024183;28;20513;-78
2021/01/18 07:50:44;;;;;;;11.77;6.13;;;-3.30;99.90;;;;;;5021638;28;20479;-78
2021/01/18 07:53:12;;;;;;;3.03;2.60;;;-3.30;99.90;;;;;;5009603;28;20065;-78
2021/01/18 07:55:39;;;;;;;3.92;2.03;;;-3.20;99.90;;;;;;5025498;28;20049;-78
2021/01/18 07:58:16;;;;;;;2.88;1.58;;;-3.00;99.90;;;;;;5005749;28;20062;-78
2021/01/18 08:00:45;;;;;;;6.25;1.60;;;-2.90;99.90;;;;;;5031472;28;20045;-78
2021/01/18 08:03:12;;;;;;;4.60;1.02;;;-2.70;99.90;;;;;;5008063;28;20053;-78
2021/01/18 08:05:43;;;;;;;6.40;2.35;;;-2.60;99.90;;;;;;5016183;28;20052;-78
2021/01/18 08:08:37;;;;;;;32.92;14.35;;;-2.60;99.90;;;;;;5034011;28;20038;-78
2021/01/18 08:11:16;;;;;;;40.33;19.08;;;-2.70;99.90;;;;;;5013043;28;20482;-78
2021/01/18 08:13:45;;;;;;;36.33;19.27;;;-2.80;99.90;;;;;;5012303;28;20049;-78
2021/01/18 08:16:50;;;;;;;38.70;19.45;;;-2.80;99.90;;;;;;5015013;28;20057;-78
2021/01/18 08:19:26;;;;;;;40.08;19.77;;;-2.90;99.90;;;;;;4948547;29;20066;-78
2021/01/18 08:22:05;;;;;;;36.35;17.13;;;-2.80;99.90;;;;;;4951357;28;20046;-78
2021/01/18 08:24:31;;;;;;;40.00;19.58;;;-2.90;99.90;;;;;;4952885;28;20058;-78
2021/01/18 08:27:03;;;;;;;32.55;16.10;;;-3.00;99.90;;;;;;4934785;29;20078;-78
2021/01/18 08:29:52;;;;;;;24.85;14.77;;;-3.00;99.90;;;;;;4951446;28;20048;-78
2021/01/18 08:32:31;;;;;;;31.85;16.02;;;-3.00;99.90;;;;;;4948159;29;20056;-78
2021/01/18 08:35:18;;;;;;;20.23;11.60;;;-3.00;99.90;;;;;;4948122;28;20055;-78
2021/01/18 08:38:06;;;;;;;24.00;10.13;;;-3.00;99.90;;;;;;4951538;28;20052;-78
2021/01/18 08:40:45;;;;;;;17.73;10.90;;;-3.00;99.90;;;;;;4931973;29;20517;-78
2021/01/18 08:43:13;;;;;;;28.30;15.05;;;-2.90;99.90;;;;;;4935124;29;20058;-78
2021/01/18 08:45:43;;;;;;;42.25;20.42;;;-2.80;99.90;;;;;;4951314;28;20058;-78
2021/01/18 08:48:11;;;;;;;26.88;13.27;;;-2.60;99.90;;;;;;4952754;28;20122;-78
2021/01/18 08:50:53;;;;;;;34.22;17.83;;;-2.50;99.90;;;;;;4984828;28;20046;-78
2021/01/18 08:53:40;;;;;;;24.33;13.20;;;-2.50;99.90;;;;;;5023961;28;20053;-78
2021/01/18 08:56:27;;;;;;;8.30;5.07;;;-2.40;99.90;;;;;;5028768;28;20049;-78
2021/01/18 08:58:54;;;;;;;6.75;4.30;;;-2.30;99.90;;;;;;5013044;28;20060;-78
2021/01/18 09:01:26;;;;;;;12.30;6.63;;;-2.20;99.90;;;;;;5027738;28;20060;-78
2021/01/18 09:03:59;;;;;;;17.60;11.07;;;-2.00;99.90;;;;;;5028078;28;20072;-78
2021/01/18 09:06:27;;;;;;;15.93;9.05;;;-2.00;99.90;;;;;;5027707;28;20554;-78
2021/01/18 09:09:05;;;;;;;17.20;8.40;;;-1.90;99.90;;;;;;5028026;28;20124;-78
2021/01/18 09:11:32;;;;;;;11.70;6.40;;;-1.70;99.90;;;;;;5015188;28;20107;-78
2021/01/18 09:13:59;;;;;;;10.38;4.82;;;-1.50;99.90;;;;;;5007473;28;20056;-79
2021/01/18 09:16:25;;;;;;;10.07;5.18;;;-1.30;99.90;;;;;;5011336;28;20056;-78
2021/01/18 09:18:52;;;;;;;14.70;4.18;;;-1.10;99.90;;;;;;5026628;28;20064;-78
2021/01/18 09:21:19;;;;;;;9.80;4.38;;;-1.00;99.90;;;;;;5001649;28;20118;-78
2021/01/18 09:23:46;;;;;;;12.75;6.13;;;-0.90;99.90;;;;;;5029134;28;20046;-78
2021/01/18 09:26:14;;;;;;;7.15;4.85;;;-0.60;99.90;;;;;;5010267;28;20052;-78
2021/01/18 09:28:52;;;;;;;6.47;3.53;;;-0.50;99.90;;;;;;5030542;28;20088;-78
2021/01/18 09:31:19;;;;;;;9.63;4.47;;;-0.50;99.90;;;;;;5006537;28;20380;-78
2021/01/18 09:33:47;;;;;;;8.65;4.45;;;-0.50;99.90;;;;;;4996061;28;20057;-78
2021/01/18 09:36:18;;;;;;;16.33;6.43;;;-0.40;99.90;;;;;;5030251;28;20053;-78
2021/01/18 09:38:47;;;;;;;10.30;4.95;;;-0.30;99.90;;;;;;5026116;28;20060;-78
2021/01/18 09:41:15;;;;;;;25.58;10.80;;;-0.20;99.90;;;;;;5030732;28;20395;-78
2021/01/18 09:43:42;;;;;;;9.02;5.53;;;0.00;99.90;;;;;;5024803;28;20067;-78
2021/01/18 09:46:09;;;;;;;12.60;6.00;;;0.00;99.90;;;;;;4997711;28;20054;-79
2021/01/18 09:48:37;;;;;;;11.15;6.38;;;0.10;99.90;;;;;;5006905;28;20050;-79
2021/01/18 09:51:05;;;;;;;19.27;7.38;;;0.40;99.90;;;;;;4997729;28;20049;-79
2021/01/18 09:53:32;;;;;;;12.63;7.03;;;0.70;99.90;;;;;;5029408;28;20055;-78
2021/01/18 09:56:04;;;;;;;9.98;6.32;;;0.90;99.90;;;;;;5016331;28;20052;-78
2021/01/18 09:58:44;;;;;;;11.48;5.45;;;1.10;99.90;;;;;;5016126;28;20100;-78
2021/01/18 10:01:24;;;;;;;7.22;4.38;;;1.00;99.90;;;;;;5007660;28;20045;-78
2021/01/18 10:03:58;;;;;;;6.22;3.00;;;1.00;99.90;;;;;;5026834;28;20492;-78
2021/01/18 10:06:31;;;;;;;2.95;1.20;;;0.90;99.90;;;;;;5030642;28;20063;-78
2021/01/18 10:09:06;;;;;;;0.63;0.50;;;1.00;99.90;;;;;;5026627;28;20060;-78
2021/01/18 10:11:57;;;;;;;1.92;0.93;;;1.10;99.90;;;;;;5014018;28;20405;-78
2021/01/18 10:14:28;;;;;;;2.40;0.70;;;1.40;99.90;;;;;;5026287;28;20409;-78
2021/01/18 10:17:09;;;;;;;2.17;1.48;;;1.50;99.90;;;;;;5009848;28;20495;-78
2021/01/18 10:19:37;;;;;;;3.10;1.40;;;1.60;99.90;;;;;;5008051;28;20049;-78
2021/01/18 10:22:15;;;;;;;3.17;1.67;;;1.70;99.90;;;;;;5017853;28;20049;-78
2021/01/18 10:24:41;;;;;;;1.98;1.00;;;1.90;99.90;;;;;;5011830;28;20069;-78
2021/01/18 10:27:15;;;;;;;2.92;0.50;;;2.20;99.90;;;;;;5008278;28;20061;-78
2021/01/18 10:29:42;;;;;;;1.00;0.80;;;2.30;99.90;;;;;;5027002;28;20045;-78
2021/01/18 10:32:09;;;;;;;1.60;1.15;;;2.40;99.90;;;;;;5027209;28;20477;-78
2021/01/18 10:34:37;;;;;;;1.77;0.95;;;2.60;99.90;;;;;;5024663;28;20467;-79
2021/01/18 10:37:26;;;;;;;3.38;0.80;;;2.80;99.90;;;;;;5028721;28;20053;-79
2021/01/18 10:40:03;;;;;;;1.42;0.80;;;3.00;99.90;;;;;;5009560;28;20049;-79
2021/01/18 10:42:30;;;;;;;0.50;0.40;;;3.20;99.90;;;;;;5027203;28;20052;-79
2021/01/18 10:44:58;;;;;;;0.60;0.40;;;3.20;99.90;;;;;;5026818;28;20483;-79
2021/01/18 10:47:28;;;;;;;3.75;0.70;;;3.40;99.90;;;;;;5010225;28;20037;-79
2021/01/18 10:49:57;;;;;;;1.60;0.90;;;3.50;99.90;;;;;;5011549;28;20128;-79
2021/01/18 10:52:37;;;;;;;0.80;0.60;;;3.40;99.90;;;;;;5026345;28;20410;-79
2021/01/18 10:55:05;;;;;;;1.48;0.60;;;3.30;99.90;;;;;;5028465;28;20128;-79
2021/01/18 10:57:45;;;;;;;1.80;1.45;;;3.40;99.90;;;;;;5010221;28;21875;-78
2021/01/18 11:00:16;;;;;;;3.80;1.50;;;3.50;99.90;;;;;;5002295;28;20418;-78
2021/01/18 11:02:54;;;;;;;4.93;2.05;;;3.80;99.90;;;;;;5024683;28;20377;-78
2021/01/18 11:05:28;;;;;;;2.75;2.05;;;4.30;99.90;;;;;;5024934;28;20045;-78
2021/01/18 11:07:55;;;;;;;3.80;2.65;;;4.40;99.90;;;;;;5028594;28;20060;-78
2021/01/18 11:10:23;;;;;;;5.57;3.28;;;4.60;99.90;;;;;;5025425;28;20395;-78
2021/01/18 11:13:06;;;;;;;9.02;3.70;;;4.70;99.90;;;;;;5026648;28;20049;-78
2021/01/18 11:15:36;;;;;;;3.15;1.80;;;5.10;99.90;;;;;;5029056;28;20487;-78
2021/01/18 11:18:03;;;;;;;10.48;5.38;;;5.30;99.90;;;;;;5009262;28;20137;-78
2021/01/18 11:20:31;;;;;;;7.85;3.30;;;5.50;99.90;;;;;;5026978;28;20052;-78
2021/01/18 11:22:59;;;;;;;10.63;3.80;;;5.70;99.90;;;;;;5025315;28;20052;-78
2021/01/18 11:25:27;;;;;;;3.33;0.80;;;5.80;99.90;;;;;;5028245;28;20046;-79
2021/01/18 11:27:54;;;;;;;2.28;0.70;;;5.80;99.90;;;;;;5025886;28;20050;-79
2021/01/18 11:30:22;;;;;;;4.13;0.60;;;5.90;99.90;;;;;;5026336;28;20053;-79
2021/01/18 11:32:48;;;;;;;0.52;0.40;;;6.10;99.90;;;;;;5030409;28;20401;-79
2021/01/18 11:35:15;;;;;;;0.43;0.30;;;6.30;99.90;;;;;;5015264;28;20063;-79
2021/01/18 11:37:42;;;;;;;0.43;0.40;;;6.60;99.90;;;;;;5007663;28;20042;-79
2021/01/18 11:40:11;;;;;;;0.45;0.30;;;6.50;99.90;;;;;;5028161;28;20050;-79
2021/01/18 11:42:38;;;;;;;0.50;0.30;;;6.60;99.90;;;;;;5012379;28;20081;-79
2021/01/18 11:45:07;;;;;;;1.08;0.50;;;6.80;99.90;;;;;;5026956;28;20052;-79
2021/01/18 11:47:40;;;;;;;0.88;0.50;;;6.80;99.90;;;;;;5012292;28;20406;-79
2021/01/18 11:50:08;;;;;;;;;;;6.90;99.90;;;;;;5012232;28;20046;-79
2021/01/18 11:52:44;;;;;;;5.60;0.60;;;7.10;99.90;;;;;;5028052;28;19932;-79
2021/01/18 11:55:12;;;;;;;1.90;0.80;;;7.20;99.90;;;;;;5027417;28;20060;-79
2021/01/18 11:57:47;;;;;;;0.57;0.47;;;7.20;99.90;;;;;;5011958;28;20045;-79
2021/01/18 12:00:17;;;;;;;1.58;0.40;;;7.50;99.90;;;;;;5030683;28;20064;-79
2021/01/18 12:02:44;;;;;;;0.60;0.40;;;7.70;99.90;;;;;;5010555;28;20059;-78
2021/01/18 12:05:11;;;;;;;1.75;0.82;;;7.70;99.90;;;;;;5030246;28;20521;-78
2021/01/18 12:07:37;;;;;;;1.38;0.57;;;7.60;99.90;;;;;;5014069;28;20077;-78
2021/01/18 12:10:05;;;;;;;1.75;0.60;;;7.80;99.90;;;;;;5012101;28;20045;-78
2021/01/18 12:12:35;;;;;;;0.50;0.40;;;7.80;99.40;;;;;;5014762;28;20471;-79
2021/01/18 12:15:03;;;;;;;2.55;0.90;;;7.90;98.70;;;;;;5030468;28;20044;-79
2021/01/18 12:17:34;;;;;;;0.70;0.40;;;8.00;99.90;;;;;;5015742;28;20042;-79
2021/01/18 12:20:01;;;;;;;0.60;0.43;;;8.20;99.70;;;;;;5030482;28;20050;-79
2021/01/18 12:22:27;;;;;;;0.52;0.40;;;8.30;99.50;;;;;;5031193;28;20044;-79
2021/01/18 12:24:54;;;;;;;0.45;0.30;;;8.30;97.50;;;;;;5014437;28;20045;-79
2021/01/18 12:27:20;;;;;;;0.70;0.50;;;8.20;97.40;;;;;;5010103;28;20050;-79
2021/01/18 12:29:46;;;;;;;1.20;0.45;;;8.30;97.90;;;;;;5015351;28;20053;-79
2021/01/18 12:32:13;;;;;;;0.50;0.50;;;8.30;97.60;;;;;;5007335;28;20396;-79
2021/01/18 12:34:40;;;;;;;2.92;0.32;;;8.30;98.30;;;;;;5011117;28;20149;-79
2021/01/18 12:37:06;;;;;;;0.90;0.57;;;8.50;98.70;;;;;;5006408;28;20422;-79
2021/01/18 12:39:33;;;;;;;0.43;0.30;;;8.50;96.80;;;;;;5007171;28;20058;-78
2021/01/18 12:42:02;;;;;;;2.50;0.47;;;8.50;96.70;;;;;;5006482;28;20459;-79
2021/01/18 12:44:29;;;;;;;0.45;0.40;;;8.60;97.40;;;;;;5013031;28;20061;-79
2021/01/18 12:47:00;;;;;;;0.38;0.38;;;8.50;95.20;;;;;;5010019;28;20056;-79
2021/01/18 12:49:27;;;;;;;2.80;0.30;;;8.60;95.80;;;;;;5011889;28;20038;-79
2021/01/18 12:51:53;;;;;;;0.50;0.40;;;9.00;98.20;;;;;;5010882;28;20092;-79
2021/01/18 12:54:20;;;;;;;0.45;0.40;;;8.90;94.90;;;;;;5008257;28;20384;-79
2021/01/18 12:56:46;;;;;;;0.43;0.30;;;9.10;95.30;;;;;;5005392;28;20138;-79
2021/01/18 12:59:14;;;;;;;1.33;0.40;;;9.10;94.80;;;;;;5011684;28;20064;-79
2021/01/18 13:01:40;;;;;;;1.55;0.38;;;9.10;94.40;;;;;;5009399;28;20048;-79
2021/01/18 13:04:07;;;;;;;1.05;0.40;;;9.30;93.40;;;;;;5011151;28;20074;-79
2021/01/18 13:06:44;;;;;;;0.38;0.30;;;9.10;94.60;;;;;;5010191;28;20376;-79
2021/01/18 13:09:15;;;;;;;0.80;0.40;;;9.30;95.90;;;;;;5022015;28;20114;-79
2021/01/18 13:11:48;;;;;;;2.30;0.30;;;9.40;95.10;;;;;;5007120;28;20053;-79
2021/01/18 13:14:17;;;;;;;1.30;0.85;;;9.60;94.20;;;;;;5009456;28;20058;-79